Current Weather

Camarillo

Camarillo, California (KCMA)

Report from: Sunday, February 25, 2024 1:55 PM PST
Current time: Sunday, February 25, 2024 2:40 PM PST

Nearby weather – Weather history – Daily summaries
Weather forecast

Temperature20.6°C (69.1°F)
Dew point8.9°C (48.0°F)
Winds 5 kts (2.6 m/s, 5.8 mph) Southwest (220°)
Visibility10 mi. (16.1 km)
Clouds Sky clear
Altimeter30.02 in.Hg (1017 mB)
Relative humidity47 %
Density altitude682 ft. (208 m)
Sea-level pressure101.7 kPa (1017 mB, 30.04 in.Hg)
Remarks Automated weather observing station with precipitation discriminator
Flight conditions Visual Meteorological Conditions
Raw dataKCMA 252155Z 22005KT 10SM CLR 21/09 A3002 RMK AO2 SLP173 T02060089
An error has occurred. This application may no longer respond until reloaded. Reload 🗙